Mullion, United Kingdom
Current Conditions -  °F | °C
As of 2:50 PM on Wednesday 26 Nov 2014 (Local Time) from EGDR Reporting Station
Haze Haze  
Wind Chill: 46°   Ceiling: 3000
Heat Index: 48°   Visibility: 6mi
Dew Point: 43°   Wind: 5mph
Humidity: 82%   Direction: 330°NNW
Pressure: 29.83"   Gusts: NA
Location:  50.03°N, 5.24°W
Report Text: EGDR 261450Z 33004KT 9999 HZ FEW010 SCT024 BKN030 09/06 Q1010 WHT TEMPO SCT010 GRN
Loading
Personal Weather Stations






























Interactive Weather Map New forecast layout! Learn more

10-Day Weather Forecast

Advertisements
Track Severe Weather on mobile